Time;durP1;ratioP1;P1;durP2;ratioP2;P2;SDS_P1;SDS_P2;PMS_P1;PMS_P2;Temp;Humidity;BMP_temperature;BMP_pressure;BME280_temperature;BME280_humidity;BME280_pressure;Samples;Min_cycle;Max_cycle;Signal;HPM_P1;HPM_P2
2023/05/17 00:01:50;;;;;;;4.03;2.53;;;;;;;;;;5073303;28;20191;-59
2023/05/17 00:04:16;;;;;;;7.03;2.60;;;;;;;;;;5072505;28;20226;-59
2023/05/17 00:06:42;;;;;;;7.37;3.40;;;;;;;;;;5072945;28;20731;-59
2023/05/17 00:09:08;;;;;;;6.93;3.10;;;;;;;;;;5073284;28;20199;-59
2023/05/17 00:11:34;;;;;;;5.43;3.00;;;;;;;;;;5073198;28;20188;-59
2023/05/17 00:14:01;;;;;;;5.10;2.70;;;;;;;;;;5073079;28;20621;-59
2023/05/17 00:16:27;;;;;;;6.20;3.03;;;;;;;;;;5073025;28;20578;-59
2023/05/17 00:18:53;;;;;;;4.70;3.10;;;;;;;;;;5072717;28;20757;-59
2023/05/17 00:21:19;;;;;;;5.23;3.10;;;;;;;;;;5073079;28;20206;-58
2023/05/17 00:23:45;;;;;;;5.70;2.80;;;;;;;;;;5072733;28;20198;-59
2023/05/17 00:26:12;;;;;;;4.60;2.63;;;;;;;;;;5072827;28;20195;-59
2023/05/17 00:28:38;;;;;;;7.27;3.27;;;;;;;;;;5072672;28;20674;-59
2023/05/17 00:31:05;;;;;;;4.87;2.97;;;;;;;;;;5072747;28;20210;-59
2023/05/17 00:33:31;;;;;;;6.93;3.60;;;;;;;;;;5072447;28;20712;-58
2023/05/17 00:35:58;;;;;;;9.07;3.50;;;;;;;;;;5072352;28;20235;-59
2023/05/17 00:38:23;;;;;;;5.67;3.30;;;;;;;;;;5072621;28;20272;-58
2023/05/17 00:40:50;;;;;;;6.17;3.20;;;;;;;;;;5072780;28;20638;-59
2023/05/17 00:43:16;;;;;;;9.50;3.63;;;;;;;;;;5072496;28;20249;-58
2023/05/17 00:45:42;;;;;;;5.60;3.13;;;;;;;;;;5072295;28;20196;-58
2023/05/17 00:48:09;;;;;;;7.23;3.27;;;;;;;;;;5072342;28;20196;-58
2023/05/17 00:50:35;;;;;;;8.17;3.47;;;;;;;;;;5072520;28;20206;-58
2023/05/17 00:53:01;;;;;;;5.83;2.83;;;;;;;;;;5072067;28;20709;-57
2023/05/17 00:55:27;;;;;;;6.87;3.33;;;;;;;;;;5072251;28;20291;-57
2023/05/17 00:57:53;;;;;;;6.40;3.30;;;;;;;;;;5072145;28;20202;-58
2023/05/17 01:00:20;;;;;;;12.00;4.07;;;;;;;;;;5072310;28;20595;-57
2023/05/17 01:02:47;;;;;;;6.13;3.27;;;;;;;;;;5071992;28;20196;-58
2023/05/17 01:05:15;;;;;;;7.50;3.60;;;;;;;;;;5071945;28;20700;-58
2023/05/17 01:07:41;;;;;;;7.57;3.40;;;;;;;;;;5071944;28;20204;-58
2023/05/17 01:10:07;;;;;;;9.27;3.77;;;;;;;;;;5072036;28;20210;-58
2023/05/17 01:12:43;;;;;;;5.90;3.53;;;;;;;;;;5072001;28;20591;-58
2023/05/17 01:15:13;;;;;;;12.90;4.07;;;;;;;;;;5071702;28;20195;-57
2023/05/17 01:17:41;;;;;;;5.97;3.30;;;;;;;;;;5070980;28;20207;-57
2023/05/17 01:20:11;;;;;;;7.97;3.70;;;;;;;;;;5071964;28;20200;-57
2023/05/17 01:22:44;;;;;;;8.47;3.73;;;;;;;;;;5071831;28;20198;-59
2023/05/17 01:25:12;;;;;;;9.77;4.27;;;;;;;;;;5071743;28;20286;-57
2023/05/17 01:27:40;;;;;;;6.47;3.67;;;;;;;;;;5071772;28;20195;-57
2023/05/17 01:30:09;;;;;;;8.67;4.30;;;;;;;;;;5071682;28;20214;-59
2023/05/17 01:32:36;;;;;;;6.90;3.27;;;;;;;;;;5071582;28;20230;-57
2023/05/17 01:35:03;;;;;;;8.30;4.13;;;;;;;;;;5071365;28;20737;-57
2023/05/17 01:37:30;;;;;;;9.73;3.70;;;;;;;;;;5071559;28;20282;-57
2023/05/17 01:39:57;;;;;;;9.23;3.80;;;;;;;;;;5071631;28;20218;-57
2023/05/17 01:42:25;;;;;;;13.13;3.90;;;;;;;;;;5071559;28;20573;-57
2023/05/17 01:45:02;;;;;;;7.97;3.80;;;;;;;;;;5071532;28;20198;-58
2023/05/17 01:47:33;;;;;;;8.00;3.97;;;;;;;;;;5071389;28;20206;-57
2023/05/17 01:49:59;;;;;;;7.43;3.60;;;;;;;;;;5071341;28;20684;-58
2023/05/17 01:52:30;;;;;;;9.87;4.30;;;;;;;;;;5071492;28;20237;-58
2023/05/17 01:55:04;;;;;;;9.27;4.03;;;;;;;;;;5071320;28;20222;-58
2023/05/17 01:57:33;;;;;;;11.97;4.63;;;;;;;;;;5071414;28;20278;-58
2023/05/17 02:00:01;;;;;;;6.07;3.60;;;;;;;;;;5071556;28;20187;-57
2023/05/17 02:02:27;;;;;;;7.83;3.80;;;;;;;;;;5071133;28;20661;-58
2023/05/17 02:04:54;;;;;;;11.43;4.37;;;;;;;;;;5071181;28;20223;-57
2023/05/17 02:07:20;;;;;;;12.60;4.37;;;;;;;;;;5071471;28;20199;-58
2023/05/17 02:09:46;;;;;;;8.70;4.13;;;;;;;;;;5071157;28;20264;-58
2023/05/17 02:12:12;;;;;;;8.53;4.00;;;;;;;;;;5071072;28;20697;-58
2023/05/17 02:14:38;;;;;;;8.63;4.13;;;;;;;;;;5071298;28;20199;-58
2023/05/17 02:17:05;;;;;;;7.23;4.00;;;;;;;;;;5071158;28;20203;-58
2023/05/17 02:19:31;;;;;;;6.87;4.03;;;;;;;;;;5071163;28;20253;-57
2023/05/17 02:21:57;;;;;;;9.70;4.40;;;;;;;;;;5070898;28;20210;-57
2023/05/17 02:24:23;;;;;;;8.87;4.20;;;;;;;;;;5071105;28;20211;-57
2023/05/17 02:26:49;;;;;;;8.30;4.23;;;;;;;;;;5071228;28;20199;-57
2023/05/17 02:29:15;;;;;;;6.57;3.77;;;;;;;;;;5073479;28;20253;-57
2023/05/17 02:31:41;;;;;;;11.70;4.67;;;;;;;;;;5074944;28;20920;-58
2023/05/17 02:34:09;;;;;;;10.50;4.13;;;;;;;;;;5074556;28;20318;-58
2023/05/17 02:36:35;;;;;;;9.63;4.20;;;;;;;;;;5075016;28;20670;-58
2023/05/17 02:39:01;;;;;;;11.27;4.17;;;;;;;;;;5074660;28;20200;-58
2023/05/17 02:41:27;;;;;;;10.37;4.27;;;;;;;;;;5074752;28;20690;-58
2023/05/17 02:43:53;;;;;;;11.57;4.03;;;;;;;;;;5074743;28;20200;-58
2023/05/17 02:46:20;;;;;;;7.23;3.80;;;;;;;;;;5074964;28;20195;-59
2023/05/17 02:48:46;;;;;;;8.20;3.73;;;;;;;;;;5074614;28;20566;-58
2023/05/17 02:51:13;;;;;;;9.63;4.40;;;;;;;;;;5074513;28;20286;-58
2023/05/17 02:53:39;;;;;;;11.13;3.73;;;;;;;;;;5074495;28;20231;-58
2023/05/17 02:56:06;;;;;;;8.33;3.37;;;;;;;;;;5074551;28;20611;-59
2023/05/17 02:58:32;;;;;;;9.43;3.60;;;;;;;;;;5074652;28;20203;-58
2023/05/17 03:00:58;;;;;;;7.80;3.10;;;;;;;;;;5074273;28;20320;-58
2023/05/17 03:03:23;;;;;;;12.20;4.03;;;;;;;;;;5074285;28;20195;-58
2023/05/17 03:05:49;;;;;;;11.80;3.30;;;;;;;;;;5074457;28;20272;-58
2023/05/17 03:08:17;;;;;;;12.03;3.80;;;;;;;;;;5074274;28;20223;-58
2023/05/17 03:10:43;;;;;;;8.50;3.40;;;;;;;;;;5074267;28;20712;-58
2023/05/17 03:13:09;;;;;;;10.73;3.50;;;;;;;;;;5074067;28;20235;-58
2023/05/17 03:15:35;;;;;;;11.60;3.70;;;;;;;;;;5074364;28;20201;-58
2023/05/17 03:18:01;;;;;;;12.63;3.30;;;;;;;;;;5073863;28;20286;-58
2023/05/17 03:20:27;;;;;;;5.93;2.87;;;;;;;;;;5073980;28;20565;-58
2023/05/17 03:22:53;;;;;;;9.23;3.37;;;;;;;;;;5074045;28;20191;-58
2023/05/17 03:25:20;;;;;;;11.93;3.93;;;;;;;;;;5073800;28;20248;-59
2023/05/17 03:27:46;;;;;;;10.03;3.33;;;;;;;;;;5072867;28;20204;-58
2023/05/17 03:30:12;;;;;;;9.70;3.40;;;;;;;;;;5073311;28;20199;-58
2023/05/17 03:32:39;;;;;;;7.10;2.97;;;;;;;;;;5073612;28;20580;-58
2023/05/17 03:35:05;;;;;;;10.80;3.17;;;;;;;;;;5073709;28;20266;-58
2023/05/17 03:37:31;;;;;;;10.90;3.27;;;;;;;;;;5073610;28;20204;-58
2023/05/17 03:39:57;;;;;;;10.30;3.37;;;;;;;;;;5072333;28;20191;-58
2023/05/17 03:42:25;;;;;;;10.77;3.53;;;;;;;;;;5073769;28;20210;-58
2023/05/17 03:44:51;;;;;;;12.37;3.10;;;;;;;;;;5073753;28;20207;-58
2023/05/17 03:47:17;;;;;;;9.43;3.20;;;;;;;;;;5073661;28;20192;-58
2023/05/17 03:49:43;;;;;;;10.53;2.80;;;;;;;;;;5073402;28;20208;-58
2023/05/17 03:52:09;;;;;;;8.90;2.70;;;;;;;;;;5073291;28;20191;-58
2023/05/17 03:54:35;;;;;;;9.63;3.60;;;;;;;;;;5073536;28;20274;-58
2023/05/17 03:57:02;;;;;;;12.03;3.70;;;;;;;;;;5073444;28;20317;-59
2023/05/17 03:59:30;;;;;;;8.53;3.60;;;;;;;;;;5073265;28;20658;-58
2023/05/17 04:01:55;;;;;;;8.37;2.93;;;;;;;;;;5073136;28;20230;-58
2023/05/17 04:04:21;;;;;;;8.23;2.90;;;;;;;;;;5073424;28;20216;-58
2023/05/17 04:06:47;;;;;;;8.63;3.37;;;;;;;;;;5073298;28;20284;-58
2023/05/17 04:09:14;;;;;;;8.40;3.33;;;;;;;;;;5073048;28;20203;-58
2023/05/17 04:11:40;;;;;;;10.83;3.87;;;;;;;;;;5073114;28;20196;-58
2023/05/17 04:14:06;;;;;;;8.17;2.80;;;;;;;;;;5072975;28;20598;-58
2023/05/17 04:16:33;;;;;;;8.20;2.83;;;;;;;;;;5073096;28;20205;-58
2023/05/17 04:19:00;;;;;;;8.93;3.20;;;;;;;;;;5072881;28;20203;-58
2023/05/17 04:21:26;;;;;;;11.53;3.20;;;;;;;;;;5072786;28;20203;-58
2023/05/17 04:23:52;;;;;;;12.13;3.90;;;;;;;;;;5073244;28;20200;-58
2023/05/17 04:26:18;;;;;;;11.10;3.67;;;;;;;;;;5072725;28;20199;-58
2023/05/17 04:28:44;;;;;;;11.73;3.47;;;;;;;;;;5072616;28;20773;-58
2023/05/17 04:31:10;;;;;;;11.90;3.20;;;;;;;;;;5072613;28;20203;-59
2023/05/17 04:33:37;;;;;;;11.77;2.80;;;;;;;;;;5072734;28;20313;-58
2023/05/17 04:36:03;;;;;;;11.60;3.57;;;;;;;;;;5072474;28;20239;-58
2023/05/17 04:38:30;;;;;;;10.03;3.40;;;;;;;;;;5072598;28;20200;-58
2023/05/17 04:41:00;;;;;;;10.10;3.00;;;;;;;;;;5072341;28;20561;-58
2023/05/17 04:43:26;;;;;;;12.07;2.83;;;;;;;;;;5072363;28;20603;-59
2023/05/17 04:45:55;;;;;;;11.97;3.33;;;;;;;;;;5072067;28;20654;-59
2023/05/17 04:48:21;;;;;;;11.13;3.30;;;;;;;;;;5072289;28;20270;-59
2023/05/17 04:50:49;;;;;;;10.87;3.23;;;;;;;;;;5072253;28;20633;-59
2023/05/17 04:53:15;;;;;;;6.47;2.80;;;;;;;;;;5072089;28;20219;-59
2023/05/17 04:55:41;;;;;;;9.13;2.53;;;;;;;;;;5072127;28;20613;-59
2023/05/17 04:58:08;;;;;;;10.07;2.90;;;;;;;;;;5072065;28;20211;-59
2023/05/17 05:00:34;;;;;;;12.10;3.83;;;;;;;;;;5072361;28;20577;-59
2023/05/17 05:03:00;;;;;;;15.80;3.30;;;;;;;;;;5072035;28;20203;-59
2023/05/17 05:05:26;;;;;;;9.33;2.90;;;;;;;;;;5071817;28;20223;-59
2023/05/17 05:07:53;;;;;;;13.40;3.23;;;;;;;;;;5072092;28;20282;-59
2023/05/17 05:10:19;;;;;;;8.93;2.70;;;;;;;;;;5071894;28;20250;-60
2023/05/17 05:12:45;;;;;;;12.00;3.30;;;;;;;;;;5071763;28;20219;-60
2023/05/17 05:15:11;;;;;;;9.67;3.13;;;;;;;;;;5071388;28;20199;-59
2023/05/17 05:17:37;;;;;;;11.20;3.13;;;;;;;;;;5071747;28;20196;-59
2023/05/17 05:20:04;;;;;;;8.40;3.37;;;;;;;;;;5071766;28;20612;-59
2023/05/17 05:22:30;;;;;;;8.57;2.57;;;;;;;;;;5071500;28;20202;-59
2023/05/17 05:24:57;;;;;;;6.10;2.57;;;;;;;;;;5071666;28;20282;-59
2023/05/17 05:27:23;;;;;;;11.00;2.73;;;;;;;;;;5071556;28;20211;-59
2023/05/17 05:29:49;;;;;;;12.73;2.97;;;;;;;;;;5071928;28;20229;-59
2023/05/17 05:32:16;;;;;;;11.07;3.13;;;;;;;;;;5071162;28;20196;-60
2023/05/17 05:34:42;;;;;;;9.00;2.90;;;;;;;;;;5071213;28;20657;-59
2023/05/17 05:37:08;;;;;;;7.50;2.80;;;;;;;;;;5071562;28;20204;-59
2023/05/17 05:39:34;;;;;;;8.83;2.97;;;;;;;;;;5071643;28;20530;-59
2023/05/17 05:42:03;;;;;;;7.87;2.73;;;;;;;;;;5071341;28;20199;-59
2023/05/17 05:44:29;;;;;;;8.03;2.60;;;;;;;;;;5071335;28;20688;-59
2023/05/17 05:46:55;;;;;;;10.10;2.80;;;;;;;;;;5071301;28;20639;-59
2023/05/17 05:49:21;;;;;;;9.40;2.50;;;;;;;;;;5071355;28;20593;-59
2023/05/17 05:51:47;;;;;;;8.07;2.23;;;;;;;;;;5071306;28;20226;-59
2023/05/17 05:54:13;;;;;;;5.27;2.20;;;;;;;;;;5071217;28;20326;-59
2023/05/17 05:56:39;;;;;;;12.40;2.90;;;;;;;;;;5071363;28;20199;-60
2023/05/17 05:59:06;;;;;;;10.47;2.90;;;;;;;;;;5071439;28;20199;-60
2023/05/17 06:01:32;;;;;;;6.80;2.83;;;;;;;;;;5071129;28;20199;-59
2023/05/17 06:03:58;;;;;;;6.93;2.37;;;;;;;;;;5070654;28;20621;-59
2023/05/17 06:06:24;;;;;;;9.60;2.60;;;;;;;;;;5071055;28;20207;-59
2023/05/17 06:08:50;;;;;;;7.07;2.23;;;;;;;;;;5070066;28;20249;-59
2023/05/17 06:11:19;;;;;;;7.53;2.73;;;;;;;;;;5071110;28;20199;-59
2023/05/17 06:13:45;;;;;;;6.83;2.47;;;;;;;;;;5071283;28;20251;-58
2023/05/17 06:16:12;;;;;;;8.40;2.33;;;;;;;;;;5070952;28;20542;-58
2023/05/17 06:18:38;;;;;;;6.97;2.27;;;;;;;;;;5071203;28;20199;-59
2023/05/17 06:21:04;;;;;;;9.23;2.23;;;;;;;;;;5071109;28;20223;-58
2023/05/17 06:23:30;;;;;;;9.57;2.30;;;;;;;;;;5070923;28;20237;-59
2023/05/17 06:25:56;;;;;;;8.40;2.13;;;;;;;;;;5070936;28;20203;-59
2023/05/17 06:28:22;;;;;;;8.33;2.20;;;;;;;;;;5070851;28;20195;-59
2023/05/17 06:30:48;;;;;;;4.83;2.00;;;;;;;;;;5070752;28;20596;-58
2023/05/17 06:33:15;;;;;;;7.20;2.20;;;;;;;;;;5070679;28;20252;-57
2023/05/17 06:35:41;;;;;;;6.70;2.20;;;;;;;;;;5070826;28;20231;-59
2023/05/17 06:38:07;;;;;;;9.43;2.70;;;;;;;;;;5070999;28;20278;-56
2023/05/17 06:40:33;;;;;;;7.27;1.93;;;;;;;;;;5070726;28;20192;-57
2023/05/17 06:43:01;;;;;;;5.50;1.80;;;;;;;;;;5070977;28;20249;-57
2023/05/17 06:45:27;;;;;;;7.77;2.63;;;;;;;;;;5070820;28;20226;-57
2023/05/17 06:47:53;;;;;;;4.63;2.00;;;;;;;;;;5070790;28;20210;-57
2023/05/17 06:50:20;;;;;;;8.20;2.80;;;;;;;;;;5070823;28;20222;-56
2023/05/17 06:52:46;;;;;;;6.50;2.40;;;;;;;;;;5070801;28;20219;-56
2023/05/17 06:55:12;;;;;;;4.47;1.67;;;;;;;;;;5064226;28;20662;-56
2023/05/17 06:57:38;;;;;;;4.10;2.20;;;;;;;;;;5071025;28;20260;-56
2023/05/17 07:00:09;;;;;;;6.20;2.10;;;;;;;;;;5071036;28;20208;-56
2023/05/17 07:02:35;;;;;;;5.17;2.17;;;;;;;;;;5070589;28;20199;-51
2023/05/17 07:05:01;;;;;;;6.23;2.67;;;;;;;;;;5070102;28;20243;-55
2023/05/17 07:07:28;;;;;;;4.87;2.10;;;;;;;;;;5069125;28;20230;-55
2023/05/17 07:09:54;;;;;;;11.30;2.53;;;;;;;;;;5070611;28;20203;-55
2023/05/17 07:12:20;;;;;;;9.20;2.80;;;;;;;;;;5070529;28;20206;-54
2023/05/17 07:14:46;;;;;;;8.83;2.47;;;;;;;;;;5071566;28;20195;-54
2023/05/17 07:17:12;;;;;;;8.20;2.47;;;;;;;;;;5073567;28;20204;-54
2023/05/17 07:19:38;;;;;;;8.80;2.70;;;;;;;;;;5073845;28;20222;-54
2023/05/17 07:22:04;;;;;;;10.47;2.63;;;;;;;;;;5074117;28;20199;-55
2023/05/17 07:24:32;;;;;;;5.30;2.10;;;;;;;;;;5073810;28;20223;-55
2023/05/17 07:26:58;;;;;;;12.70;2.97;;;;;;;;;;5073794;28;20218;-55
2023/05/17 07:29:24;;;;;;;10.33;2.23;;;;;;;;;;5073443;28;20742;-55
2023/05/17 07:31:50;;;;;;;7.83;2.37;;;;;;;;;;5073842;28;20273;-56
2023/05/17 07:34:16;;;;;;;7.40;2.27;;;;;;;;;;5073373;28;20219;-55
2023/05/17 07:36:42;;;;;;;7.37;2.90;;;;;;;;;;5071811;28;20239;-54
2023/05/17 07:39:08;;;;;;;9.87;2.73;;;;;;;;;;5072030;28;20737;-55
2023/05/17 07:41:36;;;;;;;6.60;2.50;;;;;;;;;;5073729;28;20227;-56
2023/05/17 07:44:02;;;;;;;8.03;2.40;;;;;;;;;;5073650;28;20191;-55
2023/05/17 07:46:28;;;;;;;6.67;2.50;;;;;;;;;;5073423;28;20237;-56
2023/05/17 07:48:54;;;;;;;7.47;2.40;;;;;;;;;;5073657;28;20705;-55
2023/05/17 07:51:20;;;;;;;8.93;2.60;;;;;;;;;;5073664;28;20295;-58
2023/05/17 07:53:46;;;;;;;10.07;2.70;;;;;;;;;;5073642;28;20223;-58
2023/05/17 07:56:12;;;;;;;10.67;2.87;;;;;;;;;;5073357;28;20261;-58
2023/05/17 07:58:40;;;;;;;9.53;2.43;;;;;;;;;;5073269;28;20195;-56
2023/05/17 08:01:06;;;;;;;6.63;2.63;;;;;;;;;;5073180;28;20697;-56
2023/05/17 08:03:32;;;;;;;6.17;2.20;;;;;;;;;;5073220;28;20219;-57
2023/05/17 08:05:58;;;;;;;5.07;2.17;;;;;;;;;;5073399;28;20215;-56
2023/05/17 08:08:24;;;;;;;7.53;2.70;;;;;;;;;;5073307;28;20694;-57
2023/05/17 08:10:50;;;;;;;7.57;2.50;;;;;;;;;;5073363;28;20234;-57
2023/05/17 08:13:16;;;;;;;5.47;2.30;;;;;;;;;;5072846;28;20712;-57
2023/05/17 08:15:43;;;;;;;5.70;2.33;;;;;;;;;;5072982;28;20559;-57
2023/05/17 08:18:10;;;;;;;7.50;2.30;;;;;;;;;;5072816;28;20204;-58
2023/05/17 08:20:36;;;;;;;8.97;2.37;;;;;;;;;;5073026;28;20199;-57
2023/05/17 08:23:02;;;;;;;7.17;2.43;;;;;;;;;;5072969;28;20187;-58
2023/05/17 08:25:28;;;;;;;9.23;2.60;;;;;;;;;;5072208;28;20203;-57
2023/05/17 08:27:54;;;;;;;8.43;3.00;;;;;;;;;;5073001;28;20234;-57
2023/05/17 08:30:20;;;;;;;7.50;2.33;;;;;;;;;;5072997;28;20200;-58
2023/05/17 08:32:48;;;;;;;11.77;2.80;;;;;;;;;;5072861;28;20651;-58
2023/05/17 08:35:14;;;;;;;6.50;2.20;;;;;;;;;;5072455;28;20662;-56
2023/05/17 08:37:41;;;;;;;7.80;2.60;;;;;;;;;;5070742;28;20203;-56
2023/05/17 08:40:08;;;;;;;7.10;2.40;;;;;;;;;;5072400;28;20613;-56
2023/05/17 08:42:34;;;;;;;6.70;2.47;;;;;;;;;;5072348;28;20611;-57
2023/05/17 08:45:00;;;;;;;6.33;2.73;;;;;;;;;;5072462;28;20249;-56
2023/05/17 08:47:30;;;;;;;6.37;2.93;;;;;;;;;;5072060;28;20237;-56
2023/05/17 08:49:59;;;;;;;7.53;2.50;;;;;;;;;;5072198;28;20203;-56
2023/05/17 08:52:26;;;;;;;7.67;2.33;;;;;;;;;;5071997;28;20208;-56
2023/05/17 08:54:52;;;;;;;7.40;2.70;;;;;;;;;;5072175;28;20255;-56
2023/05/17 08:57:19;;;;;;;7.83;2.20;;;;;;;;;;5072055;28;20253;-56
2023/05/17 08:59:45;;;;;;;7.70;2.27;;;;;;;;;;5071995;28;20220;-56
2023/05/17 09:02:12;;;;;;;8.93;2.70;;;;;;;;;;5071819;28;20226;-56
2023/05/17 09:04:38;;;;;;;7.33;3.03;;;;;;;;;;5071791;28;20220;-57
2023/05/17 09:07:06;;;;;;;6.43;2.43;;;;;;;;;;5072108;28;20298;-56
2023/05/17 09:09:32;;;;;;;4.17;2.20;;;;;;;;;;5071760;28;20624;-58
2023/05/17 09:11:58;;;;;;;8.30;2.20;;;;;;;;;;5071783;28;20670;-60
2023/05/17 09:14:24;;;;;;;5.60;2.17;;;;;;;;;;5071557;28;20227;-56
2023/05/17 09:16:56;;;;;;;9.00;2.60;;;;;;;;;;5071728;28;20199;-57
2023/05/17 09:19:22;;;;;;;5.60;2.10;;;;;;;;;;5071640;28;20221;-56
2023/05/17 09:21:48;;;;;;;5.20;2.27;;;;;;;;;;5071634;28;20203;-57
2023/05/17 09:24:19;;;;;;;8.30;2.30;;;;;;;;;;5071413;28;20282;-57
2023/05/17 09:26:45;;;;;;;7.63;2.40;;;;;;;;;;5071457;28;20203;-57
2023/05/17 09:29:12;;;;;;;6.17;2.10;;;;;;;;;;5071511;28;20225;-56
2023/05/17 09:31:38;;;;;;;4.73;2.33;;;;;;;;;;5071274;28;20666;-57
2023/05/17 09:34:06;;;;;;;5.43;2.57;;;;;;;;;;5071564;28;20227;-57
2023/05/17 09:36:35;;;;;;;5.13;2.23;;;;;;;;;;5070908;28;20239;-56
2023/05/17 09:39:03;;;;;;;6.97;2.57;;;;;;;;;;5071061;28;20207;-57
2023/05/17 09:41:31;;;;;;;4.93;2.30;;;;;;;;;;5071294;28;20195;-57
2023/05/17 09:43:57;;;;;;;8.63;2.40;;;;;;;;;;5071481;28;20192;-57
2023/05/17 09:46:23;;;;;;;4.93;2.40;;;;;;;;;;5071326;28;20650;-57
2023/05/17 09:48:52;;;;;;;7.20;2.53;;;;;;;;;;5071631;28;20206;-56
2023/05/17 09:51:18;;;;;;;5.47;2.47;;;;;;;;;;5071309;28;20195;-58
2023/05/17 09:53:44;;;;;;;5.23;2.53;;;;;;;;;;5071103;28;20229;-57
2023/05/17 09:56:11;;;;;;;5.60;2.10;;;;;;;;;;5071362;28;20606;-57
2023/05/17 09:58:38;;;;;;;7.67;2.83;;;;;;;;;;5071446;28;20203;-57
2023/05/17 10:01:05;;;;;;;7.53;2.50;;;;;;;;;;5071243;28;20253;-57
2023/05/17 10:03:32;;;;;;;4.97;2.57;;;;;;;;;;5071036;28;20603;-57
2023/05/17 10:06:00;;;;;;;5.67;2.17;;;;;;;;;;5071249;28;20260;-58
2023/05/17 10:08:27;;;;;;;8.73;2.60;;;;;;;;;;5071101;28;20207;-57
2023/05/17 10:10:55;;;;;;;6.17;2.37;;;;;;;;;;5071186;28;20203;-57
2023/05/17 10:13:23;;;;;;;6.27;2.60;;;;;;;;;;5071082;28;20231;-57
2023/05/17 10:15:51;;;;;;;5.43;2.10;;;;;;;;;;5071202;28;20567;-57
2023/05/17 10:18:17;;;;;;;5.00;2.37;;;;;;;;;;5071087;28;20210;-57
2023/05/17 10:20:43;;;;;;;6.87;2.17;;;;;;;;;;5070820;28;20225;-58
2023/05/17 10:23:10;;;;;;;4.93;1.83;;;;;;;;;;5071096;28;20674;-58
2023/05/17 10:25:37;;;;;;;3.47;1.73;;;;;;;;;;5071071;28;20210;-56
2023/05/17 10:28:05;;;;;;;3.33;1.90;;;;;;;;;;5071145;28;20203;-57
2023/05/17 10:30:32;;;;;;;5.23;1.53;;;;;;;;;;5070853;28;20199;-57
2023/05/17 10:33:00;;;;;;;4.00;1.50;;;;;;;;;;5070872;28;20264;-58
2023/05/17 10:35:27;;;;;;;2.77;1.60;;;;;;;;;;5070736;28;20227;-58
2023/05/17 10:37:53;;;;;;;3.80;1.90;;;;;;;;;;5070898;28;20202;-58
2023/05/17 10:40:20;;;;;;;3.17;1.67;;;;;;;;;;5070976;28;20282;-59
2023/05/17 10:42:50;;;;;;;4.70;1.80;;;;;;;;;;5070785;28;20195;-58
2023/05/17 10:45:16;;;;;;;4.37;1.67;;;;;;;;;;5070925;28;20283;-57
2023/05/17 10:47:43;;;;;;;5.93;2.07;;;;;;;;;;5070457;28;20539;-57
2023/05/17 10:50:12;;;;;;;6.63;2.10;;;;;;;;;;5074336;28;20251;-57
2023/05/17 10:52:38;;;;;;;4.57;2.03;;;;;;;;;;5074518;28;20261;-57
2023/05/17 10:55:07;;;;;;;6.73;2.00;;;;;;;;;;5074612;28;20231;-57
2023/05/17 10:57:35;;;;;;;5.87;2.07;;;;;;;;;;5074241;28;20214;-57
2023/05/17 11:00:03;;;;;;;5.00;2.37;;;;;;;;;;5073126;28;20199;-56
2023/05/17 11:02:30;;;;;;;5.97;2.00;;;;;;;;;;5074161;28;20722;-56
2023/05/17 11:04:56;;;;;;;4.63;2.20;;;;;;;;;;5074347;28;20284;-57
2023/05/17 11:07:26;;;;;;;3.03;1.83;;;;;;;;;;5074277;28;20291;-56
2023/05/17 11:09:54;;;;;;;5.07;1.83;;;;;;;;;;5074350;28;20201;-57
2023/05/17 11:12:31;;;;;;;5.03;1.93;;;;;;;;;;5074330;28;20207;-57
2023/05/17 11:14:57;;;;;;;4.93;2.27;;;;;;;;;;5073985;28;20233;-58
2023/05/17 11:17:25;;;;;;;6.93;2.50;;;;;;;;;;5074034;28;20644;-57
2023/05/17 11:20:10;;;;;;;5.70;2.13;;;;;;;;;;5074124;28;20188;-57
2023/05/17 11:22:38;;;;;;;5.93;1.97;;;;;;;;;;5073986;28;20543;-57
2023/05/17 11:25:09;;;;;;;3.93;2.20;;;;;;;;;;5074199;28;20196;-57
2023/05/17 11:27:35;;;;;;;6.03;2.40;;;;;;;;;;5073633;28;20264;-57
2023/05/17 11:30:08;;;;;;;4.23;1.70;;;;;;;;;;5073849;28;20201;-57
2023/05/17 11:32:34;;;;;;;4.93;1.80;;;;;;;;;;5073910;28;20231;-58
2023/05/17 11:35:00;;;;;;;5.50;1.93;;;;;;;;;;5073494;28;20227;-57
2023/05/17 11:37:26;;;;;;;3.37;1.77;;;;;;;;;;5073547;28;20201;-57
2023/05/17 11:40:05;;;;;;;5.73;1.70;;;;;;;;;;5073796;28;20202;-57
2023/05/17 11:42:32;;;;;;;4.07;1.70;;;;;;;;;;5073600;28;20214;-56
2023/05/17 11:44:58;;;;;;;4.13;1.80;;;;;;;;;;5073647;28;20615;-58
2023/05/17 11:47:25;;;;;;;3.27;1.90;;;;;;;;;;5073621;28;20202;-58
2023/05/17 11:49:51;;;;;;;5.63;2.00;;;;;;;;;;5073557;28;20566;-56
2023/05/17 11:52:18;;;;;;;2.63;1.67;;;;;;;;;;5073486;28;20274;-57
2023/05/17 11:54:44;;;;;;;4.00;1.70;;;;;;;;;;5073308;28;20474;-57
2023/05/17 11:57:16;;;;;;;4.53;1.90;;;;;;;;;;5073385;28;20203;-57
2023/05/17 11:59:43;;;;;;;7.87;2.20;;;;;;;;;;5072843;28;20213;-57
2023/05/17 12:02:09;;;;;;;3.27;1.50;;;;;;;;;;5073035;28;20248;-57
2023/05/17 12:04:36;;;;;;;5.60;2.00;;;;;;;;;;5073143;28;20227;-57
2023/05/17 12:07:03;;;;;;;3.60;1.60;;;;;;;;;;5073288;28;20237;-57
2023/05/17 12:09:29;;;;;;;3.77;1.93;;;;;;;;;;5073171;28;20199;-56
2023/05/17 12:11:55;;;;;;;7.00;2.37;;;;;;;;;;5073038;28;20206;-57
2023/05/17 12:14:23;;;;;;;5.00;2.40;;;;;;;;;;5073118;28;20702;-58
2023/05/17 12:16:51;;;;;;;3.97;2.20;;;;;;;;;;5072867;28;20201;-56
2023/05/17 12:19:18;;;;;;;6.03;2.27;;;;;;;;;;5072924;28;20301;-56
2023/05/17 12:21:45;;;;;;;6.30;2.30;;;;;;;;;;5072753;28;20263;-58
2023/05/17 12:24:11;;;;;;;6.97;2.17;;;;;;;;;;5072723;28;20667;-57
2023/05/17 12:26:43;;;;;;;5.13;2.10;;;;;;;;;;5072756;28;20197;-58
2023/05/17 12:29:09;;;;;;;4.80;2.10;;;;;;;;;;5072569;28;20726;-57
2023/05/17 12:31:38;;;;;;;9.63;2.20;;;;;;;;;;5072086;28;20202;-58
2023/05/17 12:34:05;;;;;;;5.10;2.20;;;;;;;;;;5072453;28;20291;-56
2023/05/17 12:36:32;;;;;;;4.80;1.90;;;;;;;;;;5072289;28;20638;-58
2023/05/17 12:38:58;;;;;;;4.37;1.70;;;;;;;;;;5072253;28;20749;-57
2023/05/17 12:41:25;;;;;;;4.23;1.80;;;;;;;;;;5072114;28;20199;-57
2023/05/17 12:43:51;;;;;;;5.53;2.07;;;;;;;;;;5072393;28;20217;-56
2023/05/17 12:46:18;;;;;;;3.37;1.67;;;;;;;;;;5072335;28;20250;-56
2023/05/17 12:48:46;;;;;;;5.27;2.13;;;;;;;;;;5071922;28;20651;-57
2023/05/17 12:51:12;;;;;;;5.57;1.80;;;;;;;;;;5072167;28;20228;-57
2023/05/17 12:53:39;;;;;;;4.57;2.13;;;;;;;;;;5071869;28;20306;-57
2023/05/17 12:56:05;;;;;;;6.23;1.90;;;;;;;;;;5072499;28;20268;-56
2023/05/17 12:58:31;;;;;;;8.20;2.20;;;;;;;;;;5071935;28;20224;-57
2023/05/17 13:00:58;;;;;;;5.83;2.07;;;;;;;;;;5071745;28;20198;-57
2023/05/17 13:03:25;;;;;;;5.17;1.93;;;;;;;;;;5071679;28;20717;-56
2023/05/17 13:05:58;;;;;;;4.47;2.27;;;;;;;;;;5072017;28;20223;-57
2023/05/17 13:08:24;;;;;;;4.60;1.57;;;;;;;;;;5071836;28;20204;-56
2023/05/17 13:10:50;;;;;;;6.37;1.80;;;;;;;;;;5071840;28;20196;-57
2023/05/17 13:13:18;;;;;;;3.87;1.80;;;;;;;;;;5071743;28;20220;-56
2023/05/17 13:15:45;;;;;;;4.03;1.90;;;;;;;;;;5071585;28;20633;-56
2023/05/17 13:18:13;;;;;;;7.07;2.10;;;;;;;;;;5071643;28;20508;-57
2023/05/17 13:20:39;;;;;;;5.90;2.10;;;;;;;;;;5071453;28;20731;-57
2023/05/17 13:23:06;;;;;;;5.50;2.10;;;;;;;;;;5071662;28;20541;-57
2023/05/17 13:25:32;;;;;;;4.27;2.50;;;;;;;;;;5071662;28;20286;-57
2023/05/17 13:27:58;;;;;;;9.03;2.67;;;;;;;;;;5071486;28;20224;-55
2023/05/17 13:30:24;;;;;;;8.40;2.80;;;;;;;;;;5072001;28;20196;-56
2023/05/17 13:32:50;;;;;;;5.07;2.40;;;;;;;;;;5071973;28;20191;-56
2023/05/17 13:35:16;;;;;;;6.67;2.53;;;;;;;;;;5071674;28;20694;-56
2023/05/17 13:37:42;;;;;;;5.83;2.37;;;;;;;;;;5071832;28;20203;-57
2023/05/17 13:40:10;;;;;;;4.03;2.10;;;;;;;;;;5072006;28;20230;-56
2023/05/17 13:42:36;;;;;;;5.97;2.50;;;;;;;;;;5071812;28;20205;-57
2023/05/17 13:45:04;;;;;;;5.93;1.97;;;;;;;;;;5071618;28;20719;-57
2023/05/17 13:47:30;;;;;;;4.70;2.10;;;;;;;;;;5071767;28;20664;-57
2023/05/17 13:49:57;;;;;;;5.17;2.20;;;;;;;;;;5071520;28;20203;-57
2023/05/17 13:52:24;;;;;;;6.10;2.30;;;;;;;;;;5071882;28;20286;-56
2023/05/17 13:54:50;;;;;;;4.90;1.73;;;;;;;;;;5071620;28;20741;-57
2023/05/17 13:57:17;;;;;;;4.40;1.80;;;;;;;;;;5071751;28;20200;-57
2023/05/17 13:59:43;;;;;;;6.47;2.40;;;;;;;;;;5071645;28;20207;-57
2023/05/17 14:02:09;;;;;;;5.47;2.43;;;;;;;;;;5071505;28;20280;-56
2023/05/17 14:04:35;;;;;;;5.73;2.00;;;;;;;;;;5071660;28;20258;-57
2023/05/17 14:07:05;;;;;;;4.17;2.00;;;;;;;;;;5071434;28;20667;-57
2023/05/17 14:09:33;;;;;;;5.13;2.13;;;;;;;;;;5071508;28;20200;-57
2023/05/17 14:11:59;;;;;;;4.47;2.13;;;;;;;;;;5071478;28;20201;-57
2023/05/17 14:14:27;;;;;;;5.77;1.97;;;;;;;;;;5071139;28;20235;-56
2023/05/17 14:16:53;;;;;;;6.53;2.10;;;;;;;;;;5071033;28;20205;-56
2023/05/17 14:19:19;;;;;;;7.83;2.27;;;;;;;;;;5071270;28;20651;-57
2023/05/17 14:21:45;;;;;;;4.93;2.27;;;;;;;;;;5071145;28;20246;-57
2023/05/17 14:24:11;;;;;;;6.53;2.30;;;;;;;;;;5073382;28;20224;-56
2023/05/17 14:26:38;;;;;;;4.87;2.33;;;;;;;;;;5075595;28;20206;-57
2023/05/17 14:29:07;;;;;;;5.40;2.53;;;;;;;;;;5075346;28;20206;-57
2023/05/17 14:31:34;;;;;;;5.20;2.47;;;;;;;;;;5075406;28;20204;-56
2023/05/17 14:34:02;;;;;;;3.47;2.43;;;;;;;;;;5075259;28;20290;-57
2023/05/17 14:36:28;;;;;;;6.90;2.57;;;;;;;;;;5075155;28;20241;-57
2023/05/17 14:38:54;;;;;;;6.03;2.27;;;;;;;;;;5075331;28;20573;-56